PAMR/MRI METAR and TAF weather

Enter ICAO airport designator
Station Type Date Time Source
PAMR METAR 2021/04/17 02:53 UTC NOAA

PAMR 170253Z 33004KT 10SM CLR 07/M02 A3047 RMK AO2 SLP320 T00721022 53002


Station Type Date Time Source
PAMR Decoded METAR 2021/04/17 02:53 UTC NOAA

ANCHORAGE MERRILL FIELD, AK, United States (PAMR) 61-13N 149-51W
Apr 16, 2021 - 10:53 PM EDT / 2021.04.17 0253 UTC
Wind: from the NNW (330 degrees) at 5 MPH (4 KT):0
Visibility: 10 mile(s):0
Sky conditions: clear
Temperature: 45.0 F (7.2 C)
Dew Point: 28.0 F (-2.2 C)
Relative Humidity: 51%
Pressure (altimeter): 30.47 in. Hg (1031 hPa)
Pressure tendency: 0.01 inches (0.2 hPa) higher than three hours ago
ob: PAMR 170253Z 33004KT 10SM CLR 07/M02 A3047 RMK AO2 SLP320 T00721022 53002
cycle: 3

Station Type Date Time Source
PAMR TAF UTC NOAA

Error!

Example: see airport list